Terminal Aerodrome Forecast
Issued by NWS

Home | Current Version | Previous Version | Graphics & Text | Print | Product List | Glossary On
Versions: 1 2 3 4 5 6 7 8 9 10 11 12 13 14 15
000
FTUS43 KGRB 040611 AAA
TAFCWA
TAF AMD
KCWA 040611Z 0406/0506 14005KT P6SM BKN030 OVC080
     FM041000 14006KT P6SM OVC020
      TEMPO 0411/0413 4SM -SN OVC012
     FM041300 15007KT 2SM -SN OVC010
     FM041400 14009KT 1 1/2SM -SN OVC008
      TEMPO 0416/0420 3/4SM -SN OVC004
     FM042300 16008KT 2SM -SN OVC008
      TEMPO 0500/0502 4SM -SN
     FM050200 23008KT P6SM BKN012 OVC020
      AMD LTD TO CLD VIS AND WIND TIL 041100=

USA.gov is the U.S. government's official web portal to all federal, state and local government web resources and services.